createdAt,value
2022-10-16T00:01:08.249Z,100494.94
2022-10-16T00:03:36.704Z,100491.47
2022-10-16T00:06:05.110Z,100488.63
2022-10-16T00:08:34.711Z,100483.72
2022-10-16T00:11:03.790Z,100482.53
2022-10-16T00:13:32.506Z,100487.91
2022-10-16T00:16:01.444Z,100495.28
2022-10-16T00:18:29.671Z,100493.38
2022-10-16T00:21:03.718Z,100487.78
2022-10-16T00:23:31.507Z,100496.78
2022-10-16T00:26:09.189Z,100501.72
2022-10-16T00:28:37.791Z,100512.22
2022-10-16T00:31:06.438Z,100506.38
2022-10-16T00:33:34.361Z,100506.03
2022-10-16T00:36:04.157Z,100512.88
2022-10-16T00:38:31.920Z,100500.06
2022-10-16T00:41:01.544Z,100510.94
2022-10-16T00:43:38.621Z,100516.44
2022-10-16T00:46:10.192Z,100510.38
2022-10-16T00:48:38.013Z,100504.88
2022-10-16T00:51:06.630Z,100505.88
2022-10-16T00:53:34.533Z,100501.91
2022-10-16T00:56:03.737Z,100508.69
2022-10-16T00:58:31.517Z,100516.75
2022-10-16T01:01:48.930Z,100506.84
2022-10-16T01:04:16.783Z,100513.53
2022-10-16T01:06:48.984Z,100514.53
2022-10-16T01:09:19.810Z,100513.13
2022-10-16T01:11:56.288Z,100511.66
2022-10-16T01:14:29.552Z,100518.13
2022-10-16T01:17:03.027Z,100525.13
2022-10-16T01:19:46.840Z,100529.72
2022-10-16T01:22:15.729Z,100528.16
2022-10-16T01:27:23.323Z,100535.38
2022-10-16T01:29:54.880Z,100537.81
2022-10-16T01:32:36.529Z,100539.19
2022-10-16T01:35:06.215Z,100537.81
2022-10-16T01:37:37.713Z,100528.84
2022-10-16T01:40:08.343Z,100534.97
2022-10-16T01:42:40.465Z,100540.13
2022-10-16T01:45:09.407Z,100537.50
2022-10-16T01:47:37.718Z,100546.72
2022-10-16T01:50:06.925Z,100539.25
2022-10-16T01:52:36.943Z,100540.44
2022-10-16T01:55:06.899Z,100541.34
2022-10-16T01:57:37.872Z,100535.94
2022-10-16T02:00:09.559Z,100541.56
2022-10-16T02:02:37.299Z,100538.38
2022-10-16T02:05:10.533Z,100545.06
2022-10-16T02:07:38.331Z,100553.75
2022-10-16T02:10:06.631Z,100549.00
2022-10-16T02:12:35.183Z,100552.06
2022-10-16T02:15:04.731Z,100538.69
2022-10-16T02:17:32.371Z,100548.72
2022-10-16T02:20:00.699Z,100551.50
2022-10-16T02:22:32.176Z,100554.81
2022-10-16T02:25:03.041Z,100548.53
2022-10-16T02:27:36.005Z,100551.56
2022-10-16T02:30:09.586Z,100540.00
2022-10-16T02:32:40.026Z,100543.13
2022-10-16T02:35:09.026Z,100531.28
2022-10-16T02:37:37.235Z,100540.97
2022-10-16T02:40:06.471Z,100537.53
2022-10-16T02:42:35.654Z,100538.81
2022-10-16T02:45:04.831Z,100538.84
2022-10-16T02:47:32.556Z,100542.41
2022-10-16T02:50:00.262Z,100551.53
2022-10-16T02:52:29.950Z,100551.56
2022-10-16T02:54:57.691Z,100546.69
2022-10-16T02:57:25.709Z,100549.69
2022-10-16T02:59:53.785Z,100564.50
2022-10-16T03:02:22.887Z,100561.28
2022-10-16T03:04:50.628Z,100552.63
2022-10-16T03:07:18.405Z,100554.03
2022-10-16T03:09:46.065Z,100547.84
2022-10-16T03:12:14.032Z,100549.63
2022-10-16T03:14:41.738Z,100543.47
2022-10-16T03:17:09.460Z,100543.19
2022-10-16T03:19:38.485Z,100542.91
2022-10-16T03:22:06.431Z,100546.72
2022-10-16T03:24:34.087Z,100535.28
2022-10-16T03:27:03.985Z,100535.97
2022-10-16T03:29:33.016Z,100538.41
2022-10-16T03:32:00.735Z,100539.94
2022-10-16T03:34:30.372Z,100537.28
2022-10-16T03:36:59.380Z,100535.72
2022-10-16T03:39:28.003Z,100536.00
2022-10-16T03:41:55.665Z,100546.47
2022-10-16T03:44:23.390Z,100554.09
2022-10-16T03:46:51.079Z,100547.63
2022-10-16T03:49:18.796Z,100555.75
2022-10-16T03:51:46.791Z,100555.47
2022-10-16T03:54:15.893Z,100546.25
2022-10-16T03:56:43.577Z,100544.91
2022-10-16T03:59:11.374Z,100558.72
2022-10-16T04:01:39.021Z,100559.19
2022-10-16T04:04:06.744Z,100556.78
2022-10-16T04:06:34.399Z,100563.00
2022-10-16T04:09:02.036Z,100562.81
2022-10-16T04:11:31.059Z,100555.50
2022-10-16T04:13:58.683Z,100562.22
2022-10-16T04:16:26.343Z,100562.78
2022-10-16T04:18:53.996Z,100565.16
2022-10-16T04:21:21.657Z,100567.91
2022-10-16T04:23:49.498Z,100576.56
2022-10-16T04:26:17.428Z,100579.31
2022-10-16T04:28:46.607Z,100574.09
2022-10-16T04:31:14.277Z,100579.88
2022-10-16T04:33:44.488Z,100580.91
2022-10-16T04:36:12.401Z,100582.28
2022-10-16T04:38:40.463Z,100587.72
2022-10-16T04:41:08.683Z,100600.44
2022-10-16T04:43:36.360Z,100604.50
2022-10-16T04:46:05.970Z,100608.59
2022-10-16T04:48:33.651Z,100616.72
2022-10-16T04:51:01.655Z,100618.88
2022-10-16T04:53:29.317Z,100618.88
2022-10-16T04:55:56.964Z,100611.59
2022-10-16T04:58:24.700Z,100604.25
2022-10-16T05:00:52.399Z,100609.66
2022-10-16T05:03:21.568Z,100608.00
2022-10-16T05:05:49.361Z,100609.94
2022-10-16T05:08:17.591Z,100610.22
2022-10-16T05:10:45.930Z,100609.69
2022-10-16T05:13:13.713Z,100615.41
2022-10-16T05:15:41.444Z,100612.09
2022-10-16T05:18:09.101Z,100614.59
2022-10-16T05:20:38.106Z,100614.34
2022-10-16T05:23:05.975Z,100619.19
2022-10-16T05:25:33.692Z,100626.50
2022-10-16T05:28:01.441Z,100625.97
2022-10-16T05:30:29.608Z,100627.91
2022-10-16T05:32:57.282Z,100635.19
2022-10-16T05:35:24.992Z,100637.09
2022-10-16T05:37:54.564Z,100638.44
2022-10-16T05:40:22.505Z,100654.72
2022-10-16T05:42:50.157Z,100647.41
2022-10-16T05:45:18.054Z,100644.19
2022-10-16T05:47:45.752Z,100639.03
2022-10-16T05:50:13.400Z,100641.72
2022-10-16T05:52:41.162Z,100646.06
2022-10-16T05:55:10.632Z,100647.13
2022-10-16T05:57:38.365Z,100643.91
2022-10-16T06:00:07.468Z,100645.25
2022-10-16T06:02:35.130Z,100644.16
2022-10-16T06:05:04.208Z,100637.13
2022-10-16T06:07:36.205Z,100641.19
2022-10-16T06:10:04.856Z,100647.97
2022-10-16T06:12:33.957Z,100640.09
2022-10-16T06:15:01.680Z,100647.69
2022-10-16T06:17:29.793Z,100648.25
2022-10-16T06:19:57.703Z,100653.38
2022-10-16T06:22:25.435Z,100654.47
2022-10-16T06:24:53.219Z,100653.66
2022-10-16T06:27:20.934Z,100663.41
2022-10-16T06:29:50.069Z,100670.44
2022-10-16T06:32:17.929Z,100669.91
2022-10-16T06:34:45.625Z,100668.25
2022-10-16T06:37:13.357Z,100673.41
2022-10-16T06:39:41.129Z,100675.31
2022-10-16T06:42:08.858Z,100681.78
2022-10-16T06:44:36.553Z,100681.78
2022-10-16T06:47:05.553Z,100683.13
2022-10-16T06:49:33.465Z,100686.13
2022-10-16T06:52:03.140Z,100694.78
2022-10-16T06:54:36.505Z,100698.84
2022-10-16T06:57:09.973Z,100698.00
2022-10-16T06:59:37.906Z,100693.16
2022-10-16T07:02:07.998Z,100705.06
2022-10-16T07:04:35.870Z,100707.22
2022-10-16T07:07:06.907Z,100714.25
2022-10-16T07:09:37.139Z,100718.63
2022-10-16T07:12:05.512Z,100719.16
2022-10-16T07:14:33.309Z,100715.91
2022-10-16T07:17:02.995Z,100717.78
2022-10-16T07:19:34.231Z,100723.47
2022-10-16T07:22:03.060Z,100722.13
2022-10-16T07:24:30.726Z,100731.06
2022-10-16T07:26:58.390Z,100732.41
2022-10-16T07:29:26.054Z,100731.91
2022-10-16T07:31:53.694Z,100734.88
2022-10-16T07:34:22.500Z,100751.91
2022-10-16T07:36:52.277Z,100745.97
2022-10-16T07:39:20.352Z,100746.78
2022-10-16T07:41:47.998Z,100750.03
2022-10-16T07:44:15.649Z,100758.97
2022-10-16T07:46:43.296Z,100760.03
2022-10-16T07:49:11.282Z,100765.19
2022-10-16T07:51:40.244Z,100768.44
2022-10-16T07:54:10.275Z,100774.38
2022-10-16T07:56:39.978Z,100786.31
2022-10-16T07:59:10.936Z,100777.09
2022-10-16T08:01:38.802Z,100779.00
2022-10-16T08:04:07.143Z,100788.50
2022-10-16T08:06:38.277Z,100798.53
2022-10-16T08:09:06.296Z,100793.91
2022-10-16T08:11:35.355Z,100790.63
2022-10-16T08:14:03.112Z,100803.63
2022-10-16T08:16:31.167Z,100812.28
2022-10-16T08:18:58.832Z,100808.78
2022-10-16T08:21:26.733Z,100812.03
2022-10-16T08:23:58.393Z,100808.50
2022-10-16T08:26:27.667Z,100809.31
2022-10-16T08:28:57.454Z,100817.44
2022-10-16T08:31:25.547Z,100816.91
2022-10-16T08:33:53.547Z,100823.13
2022-10-16T08:36:21.586Z,100817.97
2022-10-16T08:38:50.689Z,100825.28
2022-10-16T08:41:25.609Z,100826.38
2022-10-16T08:44:07.032Z,100836.09
2022-10-16T08:46:48.228Z,100835.59
2022-10-16T08:49:18.886Z,100833.69
2022-10-16T08:51:47.510Z,100831.75
2022-10-16T08:54:23.865Z,100834.72
2022-10-16T08:56:51.714Z,100848.31
2022-10-16T08:59:21.472Z,100835.56
2022-10-16T09:01:52.210Z,100836.06
2022-10-16T09:04:46.618Z,100837.38
2022-10-16T09:07:19.270Z,100840.41
2022-10-16T09:09:59.178Z,100838.75
2022-10-16T09:12:33.020Z,100844.97
2022-10-16T09:15:13.977Z,100855.25
2022-10-16T09:17:50.558Z,100840.34
2022-10-16T09:20:35.151Z,100830.28
2022-10-16T09:23:15.272Z,100836.25
2022-10-16T09:25:46.498Z,100837.56
2022-10-16T09:28:14.459Z,100835.38
2022-10-16T09:30:43.777Z,100831.31
2022-10-16T09:33:12.434Z,100837.22
2022-10-16T09:35:42.290Z,100846.19
2022-10-16T09:38:10.677Z,100849.19
2022-10-16T09:40:40.012Z,100854.31
2022-10-16T09:43:24.230Z,100854.28
2022-10-16T09:46:01.747Z,100868.59
2022-10-16T09:48:33.913Z,100862.09
2022-10-16T09:51:04.130Z,100872.69
2022-10-16T09:53:44.045Z,100875.66
2022-10-16T09:56:14.707Z,100871.31
2022-10-16T09:58:52.279Z,100876.72
2022-10-16T10:01:22.256Z,100876.03
2022-10-16T10:03:51.047Z,100882.31
2022-10-16T10:06:25.074Z,100885.75
2022-10-16T10:09:00.839Z,100889.03
2022-10-16T10:11:44.512Z,100887.63
2022-10-16T10:14:19.228Z,100894.97
2022-10-16T10:16:48.985Z,100890.59
2022-10-16T10:19:18.842Z,100902.56
2022-10-16T10:21:47.036Z,100890.50
2022-10-16T10:24:16.696Z,100891.41
2022-10-16T10:26:50.735Z,100903.81
2022-10-16T10:29:38.716Z,100896.84
2022-10-16T10:32:18.067Z,100896.50
2022-10-16T10:35:05.734Z,100905.78
2022-10-16T10:37:43.034Z,100903.44
2022-10-16T10:40:21.073Z,100904.94
2022-10-16T10:42:52.991Z,100909.25
2022-10-16T10:45:28.397Z,100915.38
2022-10-16T10:48:06.679Z,100902.75
2022-10-16T10:50:40.153Z,100908.38
2022-10-16T10:53:14.036Z,100907.41
2022-10-16T10:55:45.406Z,100918.88
2022-10-16T10:58:35.947Z,100912.91
2022-10-16T11:01:09.262Z,100913.25
2022-10-16T11:03:58.177Z,100913.19
2022-10-16T11:06:28.484Z,100921.63
2022-10-16T11:09:01.585Z,100919.41
2022-10-16T11:11:35.574Z,100924.44
2022-10-16T11:14:07.090Z,100934.19
2022-10-16T11:16:38.033Z,100934.28
2022-10-16T11:19:13.121Z,100937.44
2022-10-16T11:21:49.405Z,100943.47
2022-10-16T11:24:22.776Z,100942.28
2022-10-16T11:26:51.399Z,100954.53
2022-10-16T11:29:22.901Z,100932.34
2022-10-16T11:31:53.576Z,100959.78
2022-10-16T11:34:26.255Z,100955.16
2022-10-16T11:36:58.447Z,100961.75
2022-10-16T11:39:28.085Z,100954.06
2022-10-16T11:41:57.841Z,100955.16
2022-10-16T11:44:46.090Z,100949.94
2022-10-16T11:47:54.026Z,100949.63
2022-10-16T11:50:22.739Z,100950.59
2022-10-16T11:52:54.305Z,100954.56
2022-10-16T11:55:23.428Z,100955.16
2022-10-16T11:57:53.640Z,100961.59
2022-10-16T12:00:25.017Z,100966.38
2022-10-16T12:03:00.209Z,100968.28
2022-10-16T12:05:36.011Z,100980.72
2022-10-16T12:08:10.215Z,100979.34
2022-10-16T12:13:22.701Z,100968.53
2022-10-16T12:15:59.384Z,100967.75
2022-10-16T12:18:27.582Z,100975.88
2022-10-16T12:21:05.679Z,100979.63
2022-10-16T12:23:34.441Z,100975.88
2022-10-16T12:26:04.284Z,100981.22
2022-10-16T12:28:36.487Z,100987.13
2022-10-16T12:31:09.329Z,100987.28
2022-10-16T12:33:38.717Z,100993.69
2022-10-16T12:36:12.850Z,101006.50
2022-10-16T12:38:48.589Z,100993.22
2022-10-16T12:41:26.988Z,100995.34
2022-10-16T12:43:54.741Z,100998.59
2022-10-16T12:46:26.083Z,101009.50
2022-10-16T12:49:08.535Z,101001.56
2022-10-16T12:51:39.137Z,101003.41
2022-10-16T12:54:14.699Z,100997.88
2022-10-16T12:56:49.397Z,101006.78
2022-10-16T12:59:27.345Z,101005.34
2022-10-16T13:02:11.167Z,101007.59
2022-10-16T13:04:49.494Z,101011.91
2022-10-16T13:07:41.878Z,101015.78
2022-10-16T13:10:17.735Z,101024.13
2022-10-16T13:13:11.343Z,101025.22
2022-10-16T13:15:55.160Z,101029.13
2022-10-16T13:18:26.257Z,101032.06
2022-10-16T13:21:02.485Z,101042.91
2022-10-16T13:23:34.994Z,101042.94
2022-10-16T13:26:14.763Z,101042.47
2022-10-16T13:28:42.507Z,101046.00
2022-10-16T13:31:16.825Z,101040.50
2022-10-16T13:33:48.916Z,101048.69
2022-10-16T13:36:21.693Z,101056.59
2022-10-16T13:38:51.093Z,101052.47
2022-10-16T13:41:21.123Z,101062.63
2022-10-16T13:43:50.991Z,101072.47
2022-10-16T13:46:19.842Z,101068.91
2022-10-16T13:48:58.426Z,101086.00
2022-10-16T13:51:26.806Z,101080.53
2022-10-16T13:53:57.193Z,101070.19
2022-10-16T13:56:28.547Z,101075.88
2022-10-16T13:59:02.674Z,101079.66
2022-10-16T14:01:32.818Z,101082.97
2022-10-16T14:04:06.847Z,101084.28
2022-10-16T14:06:35.314Z,101097.34
2022-10-16T14:09:08.361Z,101097.84
2022-10-16T14:11:40.097Z,101092.69
2022-10-16T14:14:08.018Z,101100.28
2022-10-16T14:16:35.938Z,101113.03
2022-10-16T14:19:08.402Z,101113.03
2022-10-16T14:21:36.650Z,101106.25
2022-10-16T14:24:14.080Z,101113.56
2022-10-16T14:26:49.650Z,101120.63
2022-10-16T14:29:20.795Z,101120.91
2022-10-16T14:31:57.133Z,101127.47
2022-10-16T14:34:31.467Z,101129.91
2022-10-16T14:37:03.163Z,101132.84
2022-10-16T14:39:32.517Z,101132.63
2022-10-16T14:42:00.974Z,101135.63
2022-10-16T14:44:33.163Z,101132.41
2022-10-16T14:47:09.277Z,101133.50
2022-10-16T14:49:37.246Z,101136.22
2022-10-16T14:52:10.272Z,101138.06
2022-10-16T14:54:39.746Z,101132.69
2022-10-16T14:57:07.948Z,101144.69
2022-10-16T14:59:37.854Z,101146.09
2022-10-16T15:02:19.171Z,101149.31
2022-10-16T15:04:47.367Z,101153.72
2022-10-16T15:07:15.289Z,101144.69
2022-10-16T15:09:48.227Z,101164.56
2022-10-16T15:12:17.479Z,101158.34
2022-10-16T15:14:45.508Z,101159.13
2022-10-16T15:17:14.619Z,101162.72
2022-10-16T15:19:44.436Z,101146.09
2022-10-16T15:22:13.384Z,101163.72
2022-10-16T15:24:41.261Z,101171.88
2022-10-16T15:27:10.478Z,101174.94
2022-10-16T15:29:38.428Z,101178.72
2022-10-16T15:32:06.631Z,101186.34
2022-10-16T15:34:34.522Z,101180.38
2022-10-16T15:37:04.809Z,101187.78
2022-10-16T15:39:32.629Z,101189.09
2022-10-16T15:42:00.557Z,101193.66
2022-10-16T15:44:31.166Z,101194.47
2022-10-16T15:46:58.897Z,101196.94
2022-10-16T15:49:26.597Z,101200.72
2022-10-16T15:51:55.829Z,101211.59
2022-10-16T15:54:23.827Z,101211.06
2022-10-16T15:56:51.781Z,101212.72
2022-10-16T15:59:19.557Z,101207.81
2022-10-16T16:01:48.628Z,101210.53
2022-10-16T16:04:42.427Z,101218.69
2022-10-16T16:07:08.101Z,101220.63
2022-10-16T16:09:35.860Z,101231.81
2022-10-16T16:12:04.651Z,101236.72
2022-10-16T16:14:32.563Z,101236.44
2022-10-16T16:17:07.687Z,101235.34
2022-10-16T16:19:35.733Z,101236.44
2022-10-16T16:22:08.224Z,101241.31
2022-10-16T16:24:38.797Z,101239.13
2022-10-16T16:27:06.503Z,101239.94
2022-10-16T16:29:34.203Z,101247.56
2022-10-16T16:32:03.644Z,101244.53
2022-10-16T16:34:31.483Z,101241.03
2022-10-16T16:36:59.180Z,101248.91
2022-10-16T16:39:27.040Z,101255.72
2022-10-16T16:41:54.730Z,101250.00
2022-10-16T16:44:22.447Z,101263.09
2022-10-16T16:46:50.083Z,101264.19
2022-10-16T16:49:19.271Z,101279.13
2022-10-16T16:51:46.938Z,101277.78
2022-10-16T16:54:14.847Z,101283.19
2022-10-16T16:56:43.930Z,101282.38
2022-10-16T16:59:16.028Z,101289.44
2022-10-16T17:01:43.827Z,101287.03
2022-10-16T17:04:12.400Z,101288.66
2022-10-16T17:06:41.552Z,101297.34
2022-10-16T17:09:10.408Z,101307.72
2022-10-16T17:11:38.081Z,101320.22
2022-10-16T17:14:06.310Z,101320.75
2022-10-16T17:16:36.103Z,101315.88
2022-10-16T17:19:04.910Z,101329.75
2022-10-16T17:21:34.086Z,101333.56
2022-10-16T17:24:03.995Z,101322.41
2022-10-16T17:26:32.140Z,101328.91
2022-10-16T17:29:02.966Z,101334.13
2022-10-16T17:31:32.587Z,101336.06
2022-10-16T17:34:00.856Z,101342.28
2022-10-16T17:36:33.066Z,101350.75
2022-10-16T17:39:04.173Z,101355.41
2022-10-16T17:41:37.906Z,101359.47
2022-10-16T17:44:06.863Z,101367.38
2022-10-16T17:46:38.388Z,101367.34
2022-10-16T17:49:08.906Z,101375.25
2022-10-16T17:51:36.612Z,101377.19
2022-10-16T17:54:04.665Z,101377.72
2022-10-16T17:56:32.837Z,101381.56
2022-10-16T17:59:08.483Z,101382.34
2022-10-16T18:01:40.231Z,101388.06
2022-10-16T18:04:09.654Z,101391.06
2022-10-16T18:06:38.520Z,101402.47
2022-10-16T18:09:07.908Z,101400.59
2022-10-16T18:11:35.745Z,101398.13
2022-10-16T18:14:06.883Z,101419.56
2022-10-16T18:16:36.398Z,101418.75
2022-10-16T18:19:04.426Z,101413.34
2022-10-16T18:21:32.192Z,101406.03
2022-10-16T18:24:03.862Z,101410.91
2022-10-16T18:26:31.815Z,101416.59
2022-10-16T18:29:00.416Z,101420.16
2022-10-16T18:31:31.085Z,101425.53
2022-10-16T18:33:59.003Z,101426.63
2022-10-16T18:36:29.357Z,101435.03
2022-10-16T18:38:57.496Z,101436.09
2022-10-16T18:41:25.397Z,101439.34
2022-10-16T18:43:53.089Z,101452.38
2022-10-16T18:46:22.502Z,101460.78
2022-10-16T18:48:52.204Z,101455.88
2022-10-16T18:51:22.175Z,101458.84
2022-10-16T18:53:51.485Z,101449.63
2022-10-16T18:56:20.954Z,101456.09
2022-10-16T18:58:49.164Z,101455.81
2022-10-16T19:01:20.704Z,101458.53
2022-10-16T19:03:48.872Z,101453.91
2022-10-16T19:06:18.181Z,101455.25
2022-10-16T19:08:45.847Z,101450.34
2022-10-16T19:11:15.808Z,101455.25
2022-10-16T19:13:43.871Z,101458.22
2022-10-16T19:16:21.743Z,101454.16
2022-10-16T19:18:50.672Z,101451.50
2022-10-16T19:21:20.097Z,101457.22
2022-10-16T19:23:47.845Z,101463.41
2022-10-16T19:26:17.023Z,101466.38
2022-10-16T19:28:45.690Z,101462.28
2022-10-16T19:31:15.207Z,101466.06
2022-10-16T19:33:43.179Z,101472.25
2022-10-16T19:36:12.304Z,101475.56
2022-10-16T19:38:42.160Z,101478.25
2022-10-16T19:41:10.897Z,101472.25
2022-10-16T19:43:39.337Z,101465.97
2022-10-16T19:46:08.352Z,101468.69
2022-10-16T19:48:36.270Z,101454.28
2022-10-16T19:51:05.051Z,101472.47
2022-10-16T19:53:33.272Z,101468.41
2022-10-16T19:56:02.286Z,101475.75
2022-10-16T19:58:29.941Z,101486.53
2022-10-16T20:00:59.011Z,101474.19
2022-10-16T20:03:26.812Z,101477.47
2022-10-16T20:05:56.565Z,101478.84
2022-10-16T20:08:25.076Z,101479.63
2022-10-16T20:10:54.422Z,101487.19
2022-10-16T20:13:24.021Z,101493.13
2022-10-16T20:15:51.818Z,101496.66
2022-10-16T20:18:19.548Z,101496.31
2022-10-16T20:20:50.912Z,101498.72
2022-10-16T20:23:18.738Z,101507.91
2022-10-16T20:25:46.814Z,101506.34
2022-10-16T20:28:16.425Z,101506.97
2022-10-16T20:30:46.513Z,101502.06
2022-10-16T20:33:14.752Z,101505.03
2022-10-16T20:35:44.155Z,101519.69
2022-10-16T20:38:12.476Z,101519.06
2022-10-16T20:40:42.440Z,101515.75
2022-10-16T20:43:12.801Z,101513.88
2022-10-16T20:45:40.625Z,101519.84
2022-10-16T20:48:11.037Z,101522.28
2022-10-16T20:50:39.396Z,101505.72
2022-10-16T20:53:07.287Z,101501.22
2022-10-16T20:55:36.477Z,101502.91
2022-10-16T20:58:05.559Z,101518.22
2022-10-16T21:00:33.404Z,101517.91
2022-10-16T21:03:01.262Z,101523.06
2022-10-16T21:05:33.064Z,101526.03
2022-10-16T21:08:00.899Z,101536.13
2022-10-16T21:10:30.565Z,101532.88
2022-10-16T21:12:58.199Z,101544.00
2022-10-16T21:15:25.968Z,101555.28
2022-10-16T21:17:54.590Z,101554.72
2022-10-16T21:20:22.275Z,101546.97
2022-10-16T21:22:51.251Z,101554.00
2022-10-16T21:25:19.296Z,101556.69
2022-10-16T21:27:47.315Z,101548.25
2022-10-16T21:30:15.279Z,101539.00
2022-10-16T21:32:43.113Z,101542.28
2022-10-16T21:35:10.774Z,101544.16
2022-10-16T21:37:38.448Z,101545.50
2022-10-16T21:40:08.972Z,101554.72
2022-10-16T21:42:36.646Z,101566.88
2022-10-16T21:45:04.701Z,101570.41
2022-10-16T21:47:33.876Z,101561.69
2022-10-16T21:50:01.827Z,101557.91
2022-10-16T21:52:30.519Z,101551.09
2022-10-16T21:54:58.562Z,101542.16
2022-10-16T21:57:28.245Z,101543.38
2022-10-16T21:59:57.108Z,101535.81
2022-10-16T22:02:25.353Z,101545.03
2022-10-16T22:04:53.417Z,101550.34
2022-10-16T22:07:21.153Z,101555.75
2022-10-16T22:09:48.893Z,101557.66
2022-10-16T22:12:19.564Z,101564.41
2022-10-16T22:14:48.786Z,101576.94
2022-10-16T22:17:16.566Z,101570.72
2022-10-16T22:19:44.358Z,101576.09
2022-10-16T22:22:12.116Z,101583.19
2022-10-16T22:24:39.857Z,101580.72
2022-10-16T22:27:07.654Z,101575.00
2022-10-16T22:29:35.406Z,101575.22
2022-10-16T22:32:04.623Z,101574.97
2022-10-16T22:34:32.332Z,101577.13
2022-10-16T22:36:59.981Z,101587.16
2022-10-16T22:39:28.109Z,101580.13
2022-10-16T22:41:55.909Z,101577.13
2022-10-16T22:44:23.604Z,101579.06
2022-10-16T22:46:51.563Z,101574.56
2022-10-16T22:49:20.702Z,101574.56
2022-10-16T22:51:48.831Z,101572.09
2022-10-16T22:54:16.552Z,101571.78
2022-10-16T22:56:44.232Z,101556.06
2022-10-16T22:59:12.485Z,101565.81
2022-10-16T23:01:41.501Z,101556.00
2022-10-16T23:04:09.269Z,101551.41
2022-10-16T23:06:38.439Z,101545.41
2022-10-16T23:09:06.271Z,101543.56
2022-10-16T23:11:33.950Z,101546.88
2022-10-16T23:14:03.444Z,101558.38
2022-10-16T23:16:31.117Z,101551.78
2022-10-16T23:18:59.231Z,101541.78
2022-10-16T23:21:27.157Z,101541.00
2022-10-16T23:23:56.424Z,101527.72
2022-10-16T23:26:26.473Z,101523.97
2022-10-16T23:28:56.516Z,101513.94
2022-10-16T23:31:24.769Z,101516.16
2022-10-16T23:33:52.606Z,101516.91
2022-10-16T23:36:21.937Z,101528.59
2022-10-16T23:38:49.686Z,101538.31
2022-10-16T23:41:19.507Z,101543.50
2022-10-16T23:43:47.637Z,101526.72
2022-10-16T23:46:16.131Z,101509.06
2022-10-16T23:48:44.153Z,101514.81
2022-10-16T23:51:12.152Z,101515.06
2022-10-16T23:53:39.873Z,101509.66
2022-10-16T23:56:08.219Z,101511.50
2022-10-16T23:58:37.509Z,101513.72
